Time;durP1;ratioP1;P1;durP2;ratioP2;P2;SDS_P1;SDS_P2;PMS_P1;PMS_P2;Temp;Humidity;BMP_temperature;BMP_pressure;BME280_temperature;BME280_humidity;BME280_pressure;Samples;Min_cycle;Max_cycle;Signal;HPM_P1;HPM_P2
2021/11/04 00:02:28;;;;;;;4.07;1.80;;;18.50;48.60;;;;;;5030266;28;20776;-48
2021/11/04 00:04:59;;;;;;;4.65;1.70;;;18.60;48.60;;;;;;5042804;28;20234;-43
2021/11/04 00:07:29;;;;;;;3.75;1.70;;;18.60;48.60;;;;;;5036775;28;20239;-51
2021/11/04 00:10:00;;;;;;;5.03;1.58;;;18.60;48.50;;;;;;5032808;28;20299;-49
2021/11/04 00:12:30;;;;;;;7.57;2.00;;;18.60;48.50;;;;;;5036876;28;20255;-51
2021/11/04 00:15:03;;;;;;;4.25;1.48;;;18.60;48.50;;;;;;5041354;28;20295;-46
2021/11/04 00:17:33;;;;;;;5.28;1.80;;;18.70;48.50;;;;;;5033010;28;20227;-45
2021/11/04 00:20:04;;;;;;;5.32;1.80;;;18.70;48.40;;;;;;5034694;28;20316;-44
2021/11/04 00:22:35;;;;;;;3.25;1.50;;;18.70;48.40;;;;;;5034400;28;20307;-43
2021/11/04 00:25:06;;;;;;;4.15;1.38;;;18.70;48.30;;;;;;5032101;28;20230;-48
2021/11/04 00:27:37;;;;;;;4.95;1.83;;;18.70;48.20;;;;;;5044301;28;20238;-45
2021/11/04 00:30:12;;;;;;;6.85;1.77;;;18.70;48.20;;;;;;5049201;28;20702;-44
2021/11/04 00:32:47;;;;;;;3.75;1.60;;;18.80;48.20;;;;;;5029749;28;20220;-46
2021/11/04 00:35:18;;;;;;;4.35;1.60;;;18.80;48.10;;;;;;5030826;28;20601;-44
2021/11/04 00:37:53;;;;;;;6.20;1.90;;;18.80;48.10;;;;;;5030694;28;20721;-53
2021/11/04 00:40:25;;;;;;;4.82;1.73;;;18.90;48.10;;;;;;5031637;28;20196;-43
2021/11/04 00:42:55;;;;;;;5.70;1.92;;;18.80;48.00;;;;;;5032278;28;20220;-53
2021/11/04 00:45:28;;;;;;;7.82;2.08;;;18.90;48.00;;;;;;5032053;28;20219;-44
2021/11/04 00:47:58;;;;;;;5.22;1.60;;;18.90;47.90;;;;;;5031399;28;20258;-51
2021/11/04 00:50:29;;;;;;;3.88;1.80;;;18.90;47.80;;;;;;5032173;28;20200;-44
2021/11/04 00:53:00;;;;;;;5.93;2.00;;;18.90;47.80;;;;;;5032257;28;20219;-54
2021/11/04 00:55:30;;;;;;;4.95;1.80;;;19.00;47.90;;;;;;5030399;28;20284;-45
2021/11/04 00:58:01;;;;;;;4.70;1.83;;;19.00;47.80;;;;;;5032245;28;20239;-48
2021/11/04 01:00:33;;;;;;;5.22;1.80;;;19.00;47.70;;;;;;5032712;28;20279;-43
2021/11/04 01:03:04;;;;;;;4.13;1.63;;;19.00;47.60;;;;;;5047843;28;20258;-49
2021/11/04 01:05:34;;;;;;;5.00;1.90;;;19.00;47.60;;;;;;5030793;28;20282;-49
2021/11/04 01:08:05;;;;;;;4.97;1.63;;;19.10;47.70;;;;;;5048306;28;20302;-46
2021/11/04 01:10:35;;;;;;;6.18;1.90;;;19.00;47.60;;;;;;5039861;28;20273;-47
2021/11/04 01:13:06;;;;;;;4.95;1.80;;;19.10;47.50;;;;;;5032058;28;20252;-46
2021/11/04 01:15:39;;;;;;;4.43;1.85;;;19.10;47.40;;;;;;5047155;28;20230;-45
2021/11/04 01:18:09;;;;;;;5.28;1.85;;;19.10;47.40;;;;;;5031736;28;20338;-47
2021/11/04 01:20:40;;;;;;;4.65;1.88;;;19.10;47.30;;;;;;5031281;28;20301;-50
2021/11/04 01:23:10;;;;;;;5.60;1.70;;;19.10;47.30;;;;;;5031928;28;20247;-51
2021/11/04 01:25:41;;;;;;;4.65;1.75;;;19.20;47.20;;;;;;5031354;28;20303;-45
2021/11/04 01:28:11;;;;;;;7.05;1.88;;;19.20;47.30;;;;;;5032759;28;20239;-48
2021/11/04 01:30:44;;;;;;;6.72;2.28;;;19.20;47.10;;;;;;5037596;28;20282;-43
2021/11/04 01:33:14;;;;;;;4.30;1.63;;;19.20;47.00;;;;;;5038515;28;20258;-44
2021/11/04 01:35:45;;;;;;;5.57;1.98;;;19.20;47.00;;;;;;5031706;28;20645;-52
2021/11/04 01:38:17;;;;;;;4.22;1.67;;;19.20;47.00;;;;;;5033575;28;20613;-44
2021/11/04 01:40:48;;;;;;;5.55;1.70;;;19.30;47.00;;;;;;5043653;28;20266;-44
2021/11/04 01:43:19;;;;;;;3.80;1.85;;;19.20;47.00;;;;;;5030901;28;20274;-45
2021/11/04 01:45:53;;;;;;;5.68;1.77;;;19.30;47.00;;;;;;5047500;28;20242;-43
2021/11/04 01:48:24;;;;;;;5.10;1.80;;;19.30;46.90;;;;;;5038682;28;20226;-45
2021/11/04 01:50:55;;;;;;;4.35;1.52;;;19.30;46.90;;;;;;5029964;28;20242;-47
2021/11/04 01:53:26;;;;;;;5.05;2.03;;;19.30;46.90;;;;;;5029529;28;20243;-48
2021/11/04 01:55:56;;;;;;;7.45;1.80;;;19.40;46.90;;;;;;5030343;28;20241;-44
2021/11/04 01:58:27;;;;;;;5.63;1.73;;;19.40;46.80;;;;;;5031470;28;20262;-44
2021/11/04 02:00:59;;;;;;;7.65;2.08;;;19.40;46.80;;;;;;5033435;28;20211;-44
2021/11/04 02:03:34;;;;;;;5.53;1.90;;;19.40;46.70;;;;;;5033399;28;20248;-45
2021/11/04 02:06:11;;;;;;;6.93;2.03;;;19.40;46.70;;;;;;5029437;28;20250;-44
2021/11/04 02:08:46;;;;;;;3.53;1.80;;;19.50;46.70;;;;;;5030811;28;20250;-48
2021/11/04 02:11:19;;;;;;;4.57;1.85;;;19.50;46.60;;;;;;5030478;28;20727;-46
2021/11/04 02:13:53;;;;;;;7.05;2.15;;;19.50;46.60;;;;;;5037150;28;20231;-53
2021/11/04 02:16:27;;;;;;;6.00;1.80;;;19.50;46.60;;;;;;5045255;28;20226;-43
2021/11/04 02:19:02;;;;;;;4.60;2.05;;;19.50;46.60;;;;;;5039475;28;20279;-48
2021/11/04 02:21:39;;;;;;;3.05;1.50;;;19.50;46.50;;;;;;5029458;28;20303;-43
2021/11/04 02:24:20;;;;;;;4.30;1.65;;;19.50;46.50;;;;;;5031173;28;20303;-43
2021/11/04 02:26:53;;;;;;;4.22;1.70;;;19.60;46.50;;;;;;5030926;28;20211;-43
2021/11/04 02:29:25;;;;;;;5.72;1.80;;;19.60;46.50;;;;;;5031527;28;20287;-44
2021/11/04 02:31:55;;;;;;;6.60;1.73;;;19.60;46.40;;;;;;5032369;28;20691;-43
2021/11/04 02:34:28;;;;;;;5.50;1.92;;;19.60;46.40;;;;;;5032155;28;20231;-44
2021/11/04 02:37:00;;;;;;;4.85;1.80;;;19.60;46.40;;;;;;5047185;28;20215;-43
2021/11/04 02:39:31;;;;;;;5.88;1.50;;;19.70;46.40;;;;;;5048085;28;20230;-43
2021/11/04 02:42:04;;;;;;;5.13;1.77;;;19.70;46.30;;;;;;5049010;28;20325;-45
2021/11/04 02:44:36;;;;;;;5.43;1.80;;;19.70;46.20;;;;;;5029951;28;20204;-43
2021/11/04 02:47:07;;;;;;;5.15;2.03;;;19.70;46.20;;;;;;5034856;28;20238;-46
2021/11/04 02:49:41;;;;;;;5.00;1.90;;;19.70;46.20;;;;;;5033763;28;20283;-43
2021/11/04 02:52:11;;;;;;;4.78;1.73;;;19.80;46.20;;;;;;5033605;28;20653;-47
2021/11/04 02:54:51;;;;;;;5.72;2.10;;;19.80;46.10;;;;;;5033368;28;20291;-47
2021/11/04 02:57:24;;;;;;;6.45;1.75;;;19.80;46.10;;;;;;5038559;28;20199;-44
2021/11/04 02:59:54;;;;;;;7.40;1.58;;;19.80;46.00;;;;;;5035369;28;20277;-43
2021/11/04 03:02:25;;;;;;;5.03;1.80;;;19.90;46.00;;;;;;5034030;28;20274;-43
2021/11/04 03:04:56;;;;;;;6.03;1.75;;;19.90;46.00;;;;;;5033160;28;20281;-50
2021/11/04 03:07:26;;;;;;;4.60;1.55;;;19.90;46.10;;;;;;5039978;28;20239;-45
2021/11/04 03:09:57;;;;;;;6.00;1.60;;;19.90;46.00;;;;;;5033899;28;20200;-44
2021/11/04 03:12:29;;;;;;;5.20;1.70;;;20.00;46.10;;;;;;5032223;28;20251;-43
2021/11/04 03:15:01;;;;;;;4.43;1.92;;;20.00;46.00;;;;;;5033865;28;20261;-45
2021/11/04 03:17:31;;;;;;;3.75;1.55;;;20.00;46.00;;;;;;5034158;28;20231;-46
2021/11/04 03:20:11;;;;;;;5.13;1.70;;;20.00;45.90;;;;;;5032547;28;20204;-45
2021/11/04 03:22:43;;;;;;;3.88;1.48;;;20.10;45.90;;;;;;5040086;28;20274;-49
2021/11/04 03:25:15;;;;;;;4.90;1.95;;;20.10;45.90;;;;;;5035812;28;20239;-45
2021/11/04 03:27:51;;;;;;;4.35;1.65;;;20.10;45.90;;;;;;5034914;28;20214;-49
2021/11/04 03:30:24;;;;;;;4.43;1.67;;;20.20;45.90;;;;;;5049138;28;20196;-43
2021/11/04 03:33:02;;;;;;;4.70;1.67;;;20.20;45.80;;;;;;5035666;28;20312;-43
2021/11/04 03:35:37;;;;;;;5.85;2.00;;;20.20;45.80;;;;;;5034759;28;20287;-46
2021/11/04 03:38:12;;;;;;;4.80;1.73;;;20.20;46.30;;;;;;5045305;28;20203;-43
2021/11/04 03:40:43;;;;;;;3.20;1.50;;;20.20;45.50;;;;;;5037528;28;20242;-45
2021/11/04 03:43:15;;;;;;;4.10;1.65;;;20.30;45.70;;;;;;5033541;28;20258;-44
2021/11/04 03:45:48;;;;;;;4.97;1.63;;;20.30;45.70;;;;;;5035886;28;20289;-45
2021/11/04 03:48:19;;;;;;;4.88;1.80;;;20.30;45.60;;;;;;5033699;28;20228;-46
2021/11/04 03:50:51;;;;;;;5.00;1.75;;;20.30;45.60;;;;;;5032548;28;20236;-46
2021/11/04 03:53:22;;;;;;;4.00;1.48;;;20.30;45.60;;;;;;5032948;28;20275;-45
2021/11/04 03:55:53;;;;;;;4.55;1.60;;;20.40;45.60;;;;;;5033905;28;20422;-49
2021/11/04 03:58:27;;;;;;;4.53;1.70;;;20.40;45.50;;;;;;5042864;28;20268;-52
2021/11/04 04:00:58;;;;;;;6.25;2.00;;;20.40;45.50;;;;;;5033259;28;20203;-46
2021/11/04 04:03:29;;;;;;;6.05;2.20;;;20.40;45.20;;;;;;5036657;28;20216;-43
2021/11/04 04:06:03;;;;;;;6.35;1.60;;;20.50;45.30;;;;;;5038977;28;20196;-47
2021/11/04 04:08:34;;;;;;;4.25;1.83;;;20.50;45.30;;;;;;5030612;28;20204;-53
2021/11/04 04:11:06;;;;;;;5.70;1.52;;;20.50;45.20;;;;;;5029997;28;20250;-45
2021/11/04 04:13:38;;;;;;;4.93;1.67;;;20.50;45.20;;;;;;5041606;28;20258;-42
2021/11/04 04:16:09;;;;;;;4.85;1.65;;;20.50;45.10;;;;;;5034652;28;20204;-45
2021/11/04 04:18:42;;;;;;;4.63;1.42;;;20.50;45.10;;;;;;5033329;28;20236;-45
2021/11/04 04:21:12;;;;;;;3.97;1.80;;;20.50;45.00;;;;;;5033213;28;20240;-43
2021/11/04 04:23:43;;;;;;;5.50;1.48;;;20.60;45.00;;;;;;5040556;28;20199;-46
2021/11/04 04:26:13;;;;;;;3.88;1.80;;;20.60;44.90;;;;;;5040873;28;20204;-53
2021/11/04 04:28:46;;;;;;;5.60;1.73;;;20.60;45.00;;;;;;5043030;28;20235;-41
2021/11/04 04:31:17;;;;;;;7.43;1.92;;;20.60;45.00;;;;;;5033503;28;20599;-41
2021/11/04 04:33:48;;;;;;;4.15;1.73;;;20.60;45.00;;;;;;5034311;28;20619;-44
2021/11/04 04:36:18;;;;;;;4.10;1.77;;;20.60;45.00;;;;;;5045253;28;20244;-48
2021/11/04 04:38:49;;;;;;;4.68;1.98;;;20.70;45.10;;;;;;5034006;28;20269;-44
2021/11/04 04:41:19;;;;;;;7.65;1.83;;;20.70;45.10;;;;;;5032907;28;20693;-44
2021/11/04 04:43:51;;;;;;;4.25;1.60;;;20.70;45.00;;;;;;5048951;28;20238;-49
2021/11/04 04:46:22;;;;;;;6.32;2.80;;;20.70;44.90;;;;;;5032540;28;20200;-46
2021/11/04 04:48:53;;;;;;;4.68;2.50;;;20.80;44.90;;;;;;5031564;28;20242;-43
2021/11/04 04:51:25;;;;;;;4.53;2.55;;;20.80;44.90;;;;;;5031727;28;20208;-45
2021/11/04 04:53:56;;;;;;;5.07;2.90;;;20.80;44.80;;;;;;5035075;28;20283;-49
2021/11/04 04:56:26;;;;;;;6.25;2.78;;;20.80;44.80;;;;;;5032596;28;20612;-44
2021/11/04 04:58:59;;;;;;;5.57;2.83;;;20.80;44.80;;;;;;5038533;28;20204;-50
2021/11/04 05:01:29;;;;;;;5.75;2.83;;;20.80;44.70;;;;;;5032818;28;20200;-48
2021/11/04 05:04:01;;;;;;;7.03;2.67;;;20.80;44.80;;;;;;5031830;28;20293;-43
2021/11/04 05:06:31;;;;;;;6.50;2.65;;;20.90;44.80;;;;;;5037772;28;20223;-44
2021/11/04 05:09:02;;;;;;;5.55;2.45;;;20.90;44.80;;;;;;5035488;28;20274;-44
2021/11/04 05:11:32;;;;;;;4.50;2.70;;;20.90;44.90;;;;;;5043329;28;20369;-43
2021/11/04 05:14:05;;;;;;;7.13;2.83;;;20.90;44.80;;;;;;5030724;28;20224;-45
2021/11/04 05:16:35;;;;;;;5.65;2.78;;;20.90;44.80;;;;;;5043634;28;20204;-44
2021/11/04 05:19:06;;;;;;;5.78;2.63;;;20.90;44.80;;;;;;5041469;28;20231;-48
2021/11/04 05:21:37;;;;;;;6.72;2.90;;;20.90;44.70;;;;;;5049030;28;20224;-49
2021/11/04 05:24:08;;;;;;;4.88;2.38;;;20.90;44.70;;;;;;5031214;28;20232;-44
2021/11/04 05:26:39;;;;;;;4.57;2.45;;;20.90;44.70;;;;;;5030657;28;20200;-43
2021/11/04 05:29:12;;;;;;;5.10;2.30;;;21.00;44.60;;;;;;5032802;28;20203;-53
2021/11/04 05:31:42;;;;;;;5.30;2.50;;;20.90;44.50;;;;;;5032285;28;20270;-49
2021/11/04 05:34:13;;;;;;;4.38;2.47;;;20.90;44.60;;;;;;5042989;28;20271;-42
2021/11/04 05:36:43;;;;;;;3.22;2.10;;;20.90;44.60;;;;;;5036929;28;20204;-43
2021/11/04 05:39:14;;;;;;;4.55;2.38;;;20.90;44.60;;;;;;5031214;28;20569;-43
2021/11/04 05:41:44;;;;;;;7.13;2.85;;;21.00;44.60;;;;;;5032503;28;20309;-52
2021/11/04 05:44:18;;;;;;;4.90;2.28;;;20.90;44.60;;;;;;5037330;28;20239;-48
2021/11/04 05:46:48;;;;;;;5.82;2.80;;;20.90;44.60;;;;;;5033897;28;20239;-45
2021/11/04 05:49:19;;;;;;;5.88;2.60;;;20.90;44.60;;;;;;5042637;28;20200;-42
2021/11/04 05:51:49;;;;;;;3.42;2.22;;;21.00;44.80;;;;;;5030805;28;20252;-44
2021/11/04 05:54:20;;;;;;;4.28;2.35;;;21.00;44.80;;;;;;5031200;28;20710;-45
2021/11/04 05:56:50;;;;;;;7.18;2.53;;;21.00;44.80;;;;;;5047644;28;20249;-44
2021/11/04 05:59:23;;;;;;;6.22;2.67;;;20.90;44.70;;;;;;5030230;28;20224;-50
2021/11/04 06:01:54;;;;;;;5.70;2.50;;;21.00;44.60;;;;;;5030760;28;20216;-43
2021/11/04 06:04:25;;;;;;;6.72;2.42;;;20.90;44.60;;;;;;5031039;28;20214;-49
2021/11/04 06:06:56;;;;;;;4.65;2.22;;;20.90;44.60;;;;;;5033209;28;20204;-46
2021/11/04 06:09:26;;;;;;;5.55;2.50;;;21.00;44.60;;;;;;5031724;28;20212;-45
2021/11/04 06:11:57;;;;;;;6.57;2.65;;;20.90;44.60;;;;;;5030970;28;20216;-46
2021/11/04 06:14:29;;;;;;;6.18;2.22;;;21.00;44.60;;;;;;5030558;28;20691;-43
2021/11/04 06:17:00;;;;;;;5.38;2.40;;;21.00;44.60;;;;;;5033609;28;20234;-47
2021/11/04 06:19:30;;;;;;;4.40;2.00;;;21.00;44.70;;;;;;5036439;28;20193;-50
2021/11/04 06:22:01;;;;;;;3.60;2.17;;;21.00;44.80;;;;;;5031359;28;20239;-49
2021/11/04 06:24:31;;;;;;;5.63;2.60;;;20.90;44.70;;;;;;5032815;28;20200;-45
2021/11/04 06:27:02;;;;;;;6.47;2.33;;;20.90;44.70;;;;;;5046813;28;20250;-46
2021/11/04 06:29:35;;;;;;;5.13;2.47;;;20.90;44.80;;;;;;5036772;28;20720;-43
2021/11/04 06:32:06;;;;;;;4.97;2.42;;;20.90;44.80;;;;;;5034970;28;20219;-43
2021/11/04 06:34:36;;;;;;;5.20;2.28;;;20.90;44.90;;;;;;5033986;28;20212;-46
2021/11/04 06:37:07;;;;;;;5.03;2.40;;;20.90;45.00;;;;;;5034089;28;20223;-45
2021/11/04 06:39:37;;;;;;;3.55;1.90;;;20.90;45.00;;;;;;5034267;28;20290;-45
2021/11/04 06:42:08;;;;;;;4.07;2.15;;;20.90;45.70;;;;;;5034735;28;20278;-48
2021/11/04 06:44:43;;;;;;;7.40;2.50;;;20.90;45.10;;;;;;5035232;28;20242;-43
2021/11/04 06:47:30;;;;;;;4.28;2.13;;;20.90;45.00;;;;;;5043116;28;20237;-43
2021/11/04 06:50:03;;;;;;;3.55;2.08;;;20.90;45.00;;;;;;5043733;28;20203;-47
2021/11/04 06:52:39;;;;;;;5.40;2.15;;;20.90;45.10;;;;;;5032650;28;20299;-45
2021/11/04 06:55:10;;;;;;;5.57;2.00;;;20.90;45.10;;;;;;5034203;28;20282;-43
2021/11/04 06:57:44;;;;;;;4.93;2.28;;;20.90;45.20;;;;;;5035095;28;20196;-46
2021/11/04 07:00:17;;;;;;;3.92;2.10;;;20.80;45.20;;;;;;5034254;28;20261;-46
2021/11/04 07:02:54;;;;;;;4.18;2.25;;;20.80;45.20;;;;;;5042495;28;20264;-44
2021/11/04 07:05:25;;;;;;;3.20;2.20;;;20.80;45.20;;;;;;5035373;28;20192;-46
2021/11/04 07:07:58;;;;;;;2.85;2.00;;;20.80;45.20;;;;;;5034703;28;20280;-48
2021/11/04 07:10:28;;;;;;;3.50;2.13;;;20.80;45.20;;;;;;5039918;28;20229;-45
2021/11/04 07:12:59;;;;;;;3.83;2.10;;;20.80;45.20;;;;;;5047789;28;20258;-46
2021/11/04 07:15:31;;;;;;;3.60;2.03;;;20.70;45.30;;;;;;5035411;28;20269;-46
2021/11/04 07:18:02;;;;;;;6.15;2.63;;;20.70;45.30;;;;;;5041190;28;20223;-45
2021/11/04 07:20:33;;;;;;;5.28;2.35;;;20.70;45.30;;;;;;5034638;28;20234;-43
2021/11/04 07:23:05;;;;;;;3.40;1.80;;;20.70;45.30;;;;;;5041263;28;20641;-46
2021/11/04 07:25:39;;;;;;;3.42;1.95;;;20.70;45.40;;;;;;5033575;28;20235;-43
2021/11/04 07:28:15;;;;;;;4.93;2.20;;;20.60;45.40;;;;;;5032268;28;20203;-48
2021/11/04 07:30:47;;;;;;;3.78;2.17;;;20.60;45.40;;;;;;5033947;28;20235;-44
2021/11/04 07:33:20;;;;;;;3.75;1.83;;;20.60;45.40;;;;;;5035500;28;20266;-44
2021/11/04 07:35:51;;;;;;;4.55;1.98;;;20.60;45.50;;;;;;5034380;28;20223;-42
2021/11/04 07:38:23;;;;;;;2.42;1.60;;;20.60;45.50;;;;;;5037682;28;20210;-42
2021/11/04 07:40:54;;;;;;;4.47;1.90;;;20.50;45.50;;;;;;5032668;28;20239;-51
2021/11/04 07:43:25;;;;;;;3.72;2.20;;;20.60;45.60;;;;;;5037070;28;20264;-45
2021/11/04 07:45:57;;;;;;;3.20;1.80;;;20.50;45.60;;;;;;5034061;28;20242;-47
2021/11/04 07:48:28;;;;;;;4.00;1.75;;;20.50;45.50;;;;;;5036806;28;20243;-44
2021/11/04 07:50:59;;;;;;;3.95;2.30;;;20.50;45.60;;;;;;5041954;28;20242;-47
2021/11/04 07:53:30;;;;;;;3.15;2.03;;;20.50;45.60;;;;;;5034748;28;20307;-52
2021/11/04 07:56:00;;;;;;;3.33;2.10;;;20.40;45.60;;;;;;5033650;28;20807;-43
2021/11/04 07:58:31;;;;;;;4.80;2.13;;;20.40;45.60;;;;;;5046871;28;20230;-43
2021/11/04 08:01:03;;;;;;;2.80;1.67;;;20.40;45.60;;;;;;5033687;28;20280;-43
2021/11/04 08:03:34;;;;;;;3.67;2.03;;;20.30;45.60;;;;;;5040711;28;20262;-43
2021/11/04 08:06:04;;;;;;;2.67;1.70;;;20.30;45.60;;;;;;5032754;28;20315;-44
2021/11/04 08:08:36;;;;;;;3.78;1.90;;;20.30;45.60;;;;;;5032479;28;20372;-48
2021/11/04 08:11:06;;;;;;;3.38;1.80;;;20.30;45.70;;;;;;5032910;28;20656;-44
2021/11/04 08:13:37;;;;;;;3.20;1.80;;;20.20;45.70;;;;;;5044525;28;20230;-44
2021/11/04 08:16:09;;;;;;;3.30;1.85;;;20.30;45.80;;;;;;5038612;28;20200;-46
2021/11/04 08:18:40;;;;;;;2.83;1.60;;;20.20;45.80;;;;;;5035447;28;20239;-45
2021/11/04 08:21:10;;;;;;;3.00;1.75;;;20.20;45.80;;;;;;5032811;28;20235;-51
2021/11/04 08:23:41;;;;;;;3.08;1.88;;;20.10;45.80;;;;;;5030953;28;20234;-44
2021/11/04 08:26:14;;;;;;;2.97;1.52;;;20.20;45.80;;;;;;5032263;28;20282;-44
2021/11/04 08:28:45;;;;;;;2.85;1.58;;;20.10;45.80;;;;;;5033029;28;20196;-51
2021/11/04 08:31:17;;;;;;;4.00;1.92;;;20.10;45.90;;;;;;5031650;28;20228;-44
2021/11/04 08:33:48;;;;;;;2.40;1.48;;;20.10;45.80;;;;;;5034578;28;20246;-43
2021/11/04 08:36:18;;;;;;;4.35;2.03;;;20.00;45.90;;;;;;5032777;28;20227;-47
2021/11/04 08:38:49;;;;;;;1.75;1.30;;;20.00;46.00;;;;;;5046696;28;20199;-48
2021/11/04 08:41:20;;;;;;;2.92;1.70;;;20.00;46.10;;;;;;5031849;28;20301;-45
2021/11/04 08:43:50;;;;;;;3.15;1.80;;;20.00;46.20;;;;;;5036835;28;20234;-44
2021/11/04 08:46:23;;;;;;;3.35;1.60;;;19.90;46.20;;;;;;5033552;28;20200;-43
2021/11/04 08:48:53;;;;;;;3.08;1.50;;;19.90;46.30;;;;;;5032290;28;20236;-43
2021/11/04 08:51:24;;;;;;;3.13;1.70;;;19.90;46.30;;;;;;5032134;28;20548;-44
2021/11/04 08:53:54;;;;;;;3.80;1.70;;;19.90;46.40;;;;;;5032421;28;20255;-45
2021/11/04 08:56:25;;;;;;;2.92;1.67;;;19.80;46.40;;;;;;5031776;28;20203;-44
2021/11/04 08:58:55;;;;;;;5.28;2.08;;;19.90;46.40;;;;;;5039516;28;20232;-44
2021/11/04 09:01:28;;;;;;;5.00;1.90;;;19.80;46.50;;;;;;5032154;28;20236;-43
2021/11/04 09:03:59;;;;;;;3.28;1.58;;;19.80;46.50;;;;;;5034746;28;20246;-45
2021/11/04 09:06:30;;;;;;;3.80;1.65;;;19.80;46.50;;;;;;5032812;28;20234;-44
2021/11/04 09:09:02;;;;;;;2.83;1.60;;;19.80;46.60;;;;;;5031885;28;20199;-42
2021/11/04 09:11:33;;;;;;;5.05;1.88;;;19.70;46.50;;;;;;5034057;28;20219;-44
2021/11/04 09:14:03;;;;;;;3.15;1.88;;;19.70;46.60;;;;;;5032151;28;20301;-44
2021/11/04 09:16:36;;;;;;;3.25;1.40;;;19.70;46.50;;;;;;5031068;28;20196;-44
2021/11/04 09:19:10;;;;;;;3.13;1.67;;;19.60;46.50;;;;;;5030449;28;20200;-50
2021/11/04 09:21:40;;;;;;;2.70;1.30;;;19.60;46.60;;;;;;5032192;28;20313;-45
2021/11/04 09:24:11;;;;;;;2.63;1.63;;;19.60;46.60;;;;;;5031526;28;20258;-44
2021/11/04 09:26:42;;;;;;;3.45;1.50;;;19.60;46.60;;;;;;5030016;28;20293;-43
2021/11/04 09:29:12;;;;;;;2.80;1.40;;;19.50;46.60;;;;;;5030883;28;20204;-47
2021/11/04 09:31:44;;;;;;;3.63;1.50;;;19.50;46.70;;;;;;5030745;28;20224;-47
2021/11/04 09:34:15;;;;;;;2.72;1.48;;;19.50;46.70;;;;;;5039686;28;20216;-44
2021/11/04 09:36:45;;;;;;;2.60;1.38;;;19.50;46.70;;;;;;5037764;28;20259;-54
2021/11/04 09:39:16;;;;;;;3.42;1.45;;;19.50;46.70;;;;;;5030605;28;20281;-56
2021/11/04 09:41:47;;;;;;;2.33;1.30;;;19.50;46.70;;;;;;5031129;28;20264;-51
2021/11/04 09:44:20;;;;;;;2.92;1.27;;;19.40;46.70;;;;;;5030771;28;20239;-45
2021/11/04 09:46:52;;;;;;;3.15;1.60;;;19.40;46.70;;;;;;5034469;28;20218;-43
2021/11/04 09:49:24;;;;;;;3.97;1.90;;;19.40;46.70;;;;;;5045938;28;20227;-43
2021/11/04 09:51:54;;;;;;;5.07;1.73;;;19.40;46.80;;;;;;5030103;28;20224;-47
2021/11/04 09:54:25;;;;;;;3.47;1.52;;;19.40;46.80;;;;;;5037233;28;20276;-44
2021/11/04 09:56:55;;;;;;;2.83;1.70;;;19.30;46.80;;;;;;5035105;28;20227;-49
2021/11/04 09:59:26;;;;;;;3.85;1.92;;;19.30;46.80;;;;;;5030877;28;20729;-43
2021/11/04 10:01:59;;;;;;;2.92;1.63;;;19.30;46.80;;;;;;5033529;28;20326;-46
2021/11/04 10:04:38;;;;;;;2.60;1.60;;;19.30;46.80;;;;;;5035765;28;20192;-48
2021/11/04 10:07:09;;;;;;;2.67;1.73;;;19.30;46.90;;;;;;5039562;28;20439;-44
2021/11/04 10:09:40;;;;;;;3.60;1.80;;;19.20;46.80;;;;;;5039173;28;20208;-43
2021/11/04 10:12:12;;;;;;;2.58;1.65;;;19.20;46.90;;;;;;5035524;28;20256;-43
2021/11/04 10:14:43;;;;;;;2.35;1.50;;;19.20;46.90;;;;;;5034494;28;20228;-44
2021/11/04 10:17:37;;;;;;;4.28;1.75;;;19.20;46.90;;;;;;5038281;28;20562;-48
2021/11/04 10:20:17;;;;;;;2.55;1.40;;;19.20;47.00;;;;;;5035554;28;20232;-46
2021/11/04 10:22:59;;;;;;;3.55;1.83;;;19.20;47.00;;;;;;5034462;28;20219;-48
2021/11/04 10:25:30;;;;;;;3.70;1.65;;;19.20;47.00;;;;;;5037921;28;20239;-46
2021/11/04 10:28:01;;;;;;;3.05;1.60;;;19.20;47.00;;;;;;5034288;28;20226;-43
2021/11/04 10:30:40;;;;;;;2.88;1.40;;;19.20;47.00;;;;;;5035471;28;20663;-43
2021/11/04 10:33:30;;;;;;;2.55;1.75;;;19.10;47.00;;;;;;5035338;28;20219;-44
2021/11/04 10:36:06;;;;;;;2.08;1.52;;;19.10;47.10;;;;;;5035210;28;20235;-46
2021/11/04 10:38:42;;;;;;;2.40;1.55;;;19.10;47.00;;;;;;5035556;28;20258;-44
2021/11/04 10:41:20;;;;;;;3.55;1.33;;;19.10;47.10;;;;;;5035847;28;20192;-45
2021/11/04 10:43:52;;;;;;;3.50;1.40;;;19.10;47.10;;;;;;5038341;28;20697;-42
2021/11/04 10:46:23;;;;;;;2.63;1.63;;;19.10;47.10;;;;;;5053541;22;20763;-42
2021/11/04 10:49:00;;;;;;;3.40;1.60;;;19.00;47.00;;;;;;5042143;28;20228;-42
2021/11/04 10:51:32;;;;;;;2.65;1.70;;;19.00;47.10;;;;;;5030327;28;20230;-43
2021/11/04 10:54:04;;;;;;;2.30;1.30;;;19.00;47.10;;;;;;5026401;28;20219;-44
2021/11/04 10:56:36;;;;;;;2.88;1.50;;;19.00;47.10;;;;;;5033139;28;20196;-41
2021/11/04 10:59:09;;;;;;;4.40;1.42;;;19.00;47.10;;;;;;5033605;28;20564;-46
2021/11/04 11:01:42;;;;;;;3.08;1.60;;;19.00;47.10;;;;;;5030134;28;20216;-41
2021/11/04 11:04:19;;;;;;;1.92;1.33;;;19.00;47.20;;;;;;5025294;28;20208;-41
2021/11/04 11:06:51;;;;;;;2.67;1.40;;;19.00;47.20;;;;;;5030213;28;20208;-43
2021/11/04 11:09:22;;;;;;;2.67;1.60;;;18.90;47.10;;;;;;5029908;28;20704;-41
2021/11/04 11:11:54;;;;;;;2.40;1.70;;;19.00;47.20;;;;;;5028559;28;20212;-42
2021/11/04 11:14:26;;;;;;;3.25;1.55;;;19.00;47.30;;;;;;5029921;28;20768;-41
2021/11/04 11:16:58;;;;;;;2.00;1.38;;;18.90;47.30;;;;;;5031219;28;20225;-47
2021/11/04 11:19:33;;;;;;;3.13;1.60;;;18.90;47.30;;;;;;5030771;28;20662;-41
2021/11/04 11:22:04;;;;;;;3.70;1.80;;;18.90;47.30;;;;;;5031017;28;20305;-43
2021/11/04 11:24:36;;;;;;;3.22;1.50;;;18.90;47.30;;;;;;5030158;28;20208;-41
2021/11/04 11:27:09;;;;;;;3.35;1.50;;;18.90;47.30;;;;;;5030594;28;20743;-41
2021/11/04 11:29:41;;;;;;;3.00;1.60;;;18.90;47.30;;;;;;5029938;28;20351;-43
2021/11/04 11:32:20;;;;;;;2.45;1.45;;;18.80;47.30;;;;;;5027953;28;20252;-47
2021/11/04 11:35:14;;;;;;;2.15;1.25;;;18.80;47.30;;;;;;5020454;28;20829;-44
2021/11/04 11:38:07;;;;;;;3.28;1.83;;;18.80;47.30;;;;;;5029952;28;20207;-42
2021/11/04 11:40:38;;;;;;;2.72;1.30;;;18.80;47.30;;;;;;5028800;28;20200;-50
2021/11/04 11:43:12;;;;;;;1.80;1.23;;;18.80;47.30;;;;;;5029296;28;20258;-43
2021/11/04 11:45:44;;;;;;;2.17;1.30;;;18.80;47.30;;;;;;5030491;28;20508;-49
2021/11/04 11:48:19;;;;;;;2.22;1.40;;;18.80;47.40;;;;;;5029792;28;22763;-44
2021/11/04 11:50:52;;;;;;;2.30;1.30;;;18.80;47.40;;;;;;5029790;28;20289;-44
2021/11/04 11:53:28;;;;;;;1.63;1.02;;;18.80;47.40;;;;;;5031285;28;20255;-43
2021/11/04 11:55:59;;;;;;;2.75;1.50;;;18.70;47.40;;;;;;5030484;28;20592;-42
2021/11/04 11:58:36;;;;;;;2.47;1.48;;;18.70;47.40;;;;;;5030415;28;20196;-42
2021/11/04 12:01:12;;;;;;;3.05;1.50;;;18.70;47.40;;;;;;5030102;28;20231;-44
2021/11/04 12:03:57;;;;;;;4.18;2.08;;;18.70;47.40;;;;;;5029419;28;20635;-42
2021/11/04 12:06:46;;;;;;;2.97;1.40;;;18.70;47.40;;;;;;5029975;28;20196;-44
2021/11/04 12:09:35;;;;;;;2.53;1.30;;;18.70;47.40;;;;;;5029182;28;20313;-43
2021/11/04 12:12:06;;;;;;;2.30;1.45;;;18.70;47.40;;;;;;5029839;28;20247;-43
2021/11/04 12:14:37;;;;;;;2.88;1.50;;;18.70;47.50;;;;;;5029336;28;20757;-52
2021/11/04 12:17:26;;;;;;;1.73;1.30;;;18.70;47.50;;;;;;5029130;28;20995;-42
2021/11/04 12:19:59;;;;;;;3.45;1.60;;;18.60;47.50;;;;;;5029112;28;20287;-43
2021/11/04 12:22:34;;;;;;;3.75;1.77;;;18.60;47.50;;;;;;5029977;28;20251;-47
2021/11/04 12:25:08;;;;;;;2.60;1.45;;;18.60;47.50;;;;;;5028787;28;20196;-43
2021/11/04 12:27:42;;;;;;;2.20;1.30;;;18.60;47.50;;;;;;5028303;28;20246;-41
2021/11/04 12:30:23;;;;;;;1.60;1.20;;;18.60;47.50;;;;;;5030601;28;20199;-41
2021/11/04 12:33:04;;;;;;;1.85;1.23;;;18.60;47.50;;;;;;5029368;28;20228;-50
2021/11/04 12:35:48;;;;;;;2.17;1.23;;;18.50;48.10;;;;;;5029520;28;20255;-47
2021/11/04 12:38:22;;;;;;;3.78;1.48;;;18.60;47.60;;;;;;5028796;28;20232;-41
2021/11/04 12:41:05;;;;;;;3.45;1.38;;;18.60;47.50;;;;;;5028166;28;20765;-46
2021/11/04 12:43:36;;;;;;;1.80;1.08;;;18.50;47.60;;;;;;5028554;28;20243;-46
2021/11/04 12:46:17;;;;;;;3.75;1.60;;;18.50;47.60;;;;;;5028406;28;20236;-44
2021/11/04 12:48:52;;;;;;;2.28;1.50;;;18.50;47.60;;;;;;5028304;28;20667;-42
2021/11/04 12:51:23;;;;;;;2.75;1.40;;;18.50;47.60;;;;;;5029379;28;20237;-41
2021/11/04 12:54:03;;;;;;;2.33;1.35;;;18.50;47.60;;;;;;5028283;28;20270;-45
2021/11/04 12:56:45;;;;;;;1.98;1.05;;;18.50;47.60;;;;;;5027903;28;20622;-42
2021/11/04 12:59:29;;;;;;;2.53;1.20;;;18.50;47.60;;;;;;5029708;28;20234;-42
2021/11/04 13:02:12;;;;;;;1.83;1.30;;;18.50;47.60;;;;;;5013257;28;20222;-48
2021/11/04 13:04:45;;;;;;;2.08;1.30;;;18.50;47.60;;;;;;5012616;28;20207;-40
2021/11/04 13:07:17;;;;;;;1.60;1.10;;;18.50;47.60;;;;;;5027483;28;20643;-47
2021/11/04 13:09:51;;;;;;;1.98;1.25;;;18.40;47.60;;;;;;5029191;28;20261;-46
2021/11/04 13:12:22;;;;;;;3.10;1.30;;;18.40;47.60;;;;;;5028269;28;20251;-47
2021/11/04 13:15:04;;;;;;;2.05;1.40;;;18.40;47.60;;;;;;5027891;28;20319;-46
2021/11/04 13:17:45;;;;;;;2.40;1.30;;;18.40;47.70;;;;;;5027934;28;20203;-41